createdAt,value
2022-08-25T00:00:30.868Z,100066.60
2022-08-25T00:03:13.901Z,100064.17
2022-08-25T00:05:43.117Z,100061.30
2022-08-25T00:08:11.877Z,100061.20
2022-08-25T00:10:41.861Z,100062.39
2022-08-25T00:13:10.805Z,100063.16
2022-08-25T00:15:39.376Z,100068.67
2022-08-25T00:18:19.980Z,100067.59
2022-08-25T00:20:49.323Z,100065.02
2022-08-25T00:23:18.417Z,100064.52
2022-08-25T00:25:47.262Z,100064.52
2022-08-25T00:28:16.348Z,100061.08
2022-08-25T00:30:45.602Z,100063.93
2022-08-25T00:33:14.425Z,100058.46
2022-08-25T00:35:43.611Z,100056.59
2022-08-25T00:38:13.421Z,100050.95
2022-08-25T00:40:43.441Z,100054.59
2022-08-25T00:43:13.304Z,100056.98
2022-08-25T00:45:42.145Z,100058.77
2022-08-25T00:48:10.924Z,100058.20
2022-08-25T00:50:39.867Z,100058.54
2022-08-25T00:53:09.247Z,100055.46
2022-08-25T00:55:41.600Z,100053.02
2022-08-25T00:58:17.890Z,100050.45
2022-08-25T01:00:49.214Z,100053.60
2022-08-25T01:03:19.260Z,100051.57
2022-08-25T01:05:49.195Z,100053.37
2022-08-25T01:08:20.538Z,100051.02
2022-08-25T01:10:50.413Z,100057.36
2022-08-25T01:13:26.118Z,100055.67
2022-08-25T01:15:56.499Z,100056.89
2022-08-25T01:18:26.697Z,100058.80
2022-08-25T01:20:57.016Z,100057.03
2022-08-25T01:23:26.273Z,100054.41
2022-08-25T01:26:01.843Z,100054.60
2022-08-25T01:28:30.759Z,100051.50
2022-08-25T01:30:59.837Z,100049.63
2022-08-25T01:33:28.838Z,100051.61
2022-08-25T01:35:57.282Z,100052.56
2022-08-25T01:38:26.084Z,100051.27
2022-08-25T01:40:54.830Z,100057.75
2022-08-25T01:43:36.324Z,100055.08
2022-08-25T01:46:05.423Z,100049.89
2022-08-25T01:48:34.172Z,100047.89
2022-08-25T01:51:02.917Z,100046.52
2022-08-25T01:53:33.676Z,100043.23
2022-08-25T01:56:11.091Z,100036.92
2022-08-25T01:58:43.599Z,100034.20
2022-08-25T02:01:15.400Z,100033.80
2022-08-25T02:03:47.178Z,100031.81
2022-08-25T02:06:21.733Z,100034.79
2022-08-25T02:09:01.066Z,100038.12
2022-08-25T02:11:30.893Z,100039.34
2022-08-25T02:14:00.387Z,100038.66
2022-08-25T02:16:31.553Z,100036.53
2022-08-25T02:19:00.613Z,100040.05
2022-08-25T02:21:29.813Z,100041.59
2022-08-25T02:23:58.846Z,100040.80
2022-08-25T02:26:28.720Z,100040.06
2022-08-25T02:28:57.430Z,100038.44
2022-08-25T02:31:26.386Z,100030.94
2022-08-25T02:33:55.069Z,100031.22
2022-08-25T02:36:26.302Z,100032.71
2022-08-25T02:38:55.096Z,100026.83
2022-08-25T02:41:28.855Z,100026.57
2022-08-25T02:44:02.007Z,100029.40
2022-08-25T02:46:30.979Z,100029.27
2022-08-25T02:48:59.527Z,100026.70
2022-08-25T02:51:29.416Z,100023.02
2022-08-25T02:53:59.059Z,100016.70
2022-08-25T02:56:28.509Z,100007.45
2022-08-25T02:58:57.670Z,100003.85
2022-08-25T03:01:28.794Z,100006.72
2022-08-25T03:03:58.273Z,100002.14
2022-08-25T03:06:27.478Z,100001.69
2022-08-25T03:08:56.623Z,99999.35
2022-08-25T03:11:27.596Z,100000.45
2022-08-25T03:13:56.374Z,100000.26
2022-08-25T03:16:27.704Z,100004.91
2022-08-25T03:18:55.989Z,100002.56
2022-08-25T03:21:25.059Z,100004.20
2022-08-25T03:23:53.793Z,100004.81
2022-08-25T03:26:55.588Z,100002.23
2022-08-25T03:29:29.078Z,100003.35
2022-08-25T03:31:59.175Z,100004.65
2022-08-25T03:34:58.452Z,100007.39
2022-08-25T03:37:27.056Z,100005.70
2022-08-25T03:39:56.101Z,100009.82
2022-08-25T03:42:25.838Z,100009.27
2022-08-25T03:44:55.427Z,100011.53
2022-08-25T03:47:25.785Z,100012.05
2022-08-25T03:49:54.590Z,100011.52
2022-08-25T03:52:23.338Z,100010.15
2022-08-25T03:54:52.436Z,100007.77
2022-08-25T03:57:21.027Z,100004.37
2022-08-25T03:59:49.882Z,100004.91
2022-08-25T04:02:18.723Z,100006.27
2022-08-25T04:04:47.660Z,100007.43
2022-08-25T04:07:17.105Z,100006.55
2022-08-25T04:09:45.964Z,100011.77
2022-08-25T04:12:14.494Z,100013.67
2022-08-25T04:14:43.437Z,100012.80
2022-08-25T04:17:12.048Z,100017.05
2022-08-25T04:19:40.705Z,100017.86
2022-08-25T04:22:09.359Z,100014.23
2022-08-25T04:24:38.213Z,100013.96
2022-08-25T04:27:06.956Z,100013.00
2022-08-25T04:29:35.813Z,100010.64
2022-08-25T04:32:05.093Z,100012.52
2022-08-25T04:34:33.778Z,100009.87
2022-08-25T04:37:05.676Z,100011.86
2022-08-25T04:39:33.615Z,100014.23
2022-08-25T04:42:02.584Z,100010.44
2022-08-25T04:44:33.588Z,100009.60
2022-08-25T04:47:02.777Z,100009.98
2022-08-25T04:49:31.623Z,100014.80
2022-08-25T04:52:00.736Z,100012.30
2022-08-25T04:54:29.572Z,100015.34
2022-08-25T04:57:06.223Z,100015.83
2022-08-25T04:59:37.619Z,100012.90
2022-08-25T05:02:06.567Z,100015.17
2022-08-25T05:04:37.127Z,100018.82
2022-08-25T05:07:06.672Z,100026.83
2022-08-25T05:09:37.094Z,100025.73
2022-08-25T05:12:06.856Z,100029.77
2022-08-25T05:14:35.664Z,100026.75
2022-08-25T05:17:04.353Z,100033.14
2022-08-25T05:19:33.569Z,100034.61
2022-08-25T05:22:02.599Z,100035.25
2022-08-25T05:24:31.230Z,100028.15
2022-08-25T05:27:00.255Z,100025.94
2022-08-25T05:29:29.138Z,100023.70
2022-08-25T05:31:58.223Z,100028.91
2022-08-25T05:34:26.652Z,100027.42
2022-08-25T05:36:59.602Z,100025.10
2022-08-25T05:39:31.777Z,100021.39
2022-08-25T05:42:00.449Z,100021.43
2022-08-25T05:44:30.840Z,100019.39
2022-08-25T05:47:04.157Z,100019.08
2022-08-25T05:49:32.714Z,100019.80
2022-08-25T05:52:01.441Z,100016.83
2022-08-25T05:54:31.071Z,100019.88
2022-08-25T05:56:59.946Z,100019.18
2022-08-25T05:59:29.586Z,100017.02
2022-08-25T06:02:16.650Z,100011.02
2022-08-25T06:04:45.749Z,100008.98
2022-08-25T06:07:14.522Z,100010.67
2022-08-25T06:09:45.847Z,100010.90
2022-08-25T06:12:14.931Z,100010.38
2022-08-25T06:14:44.586Z,100014.39
2022-08-25T06:17:13.083Z,100005.98
2022-08-25T06:19:41.777Z,100010.52
2022-08-25T06:22:10.878Z,100005.45
2022-08-25T06:24:39.508Z,100003.76
2022-08-25T06:27:08.447Z,100004.14
2022-08-25T06:29:37.048Z,100007.14
2022-08-25T06:32:07.274Z,100008.63
2022-08-25T06:34:36.034Z,100010.33
2022-08-25T06:37:05.045Z,100010.27
2022-08-25T06:39:33.865Z,100014.71
2022-08-25T06:42:02.581Z,100017.64
2022-08-25T06:44:31.780Z,100015.64
2022-08-25T06:47:00.743Z,100014.98
2022-08-25T06:49:31.914Z,100014.98
2022-08-25T06:52:02.123Z,100018.91
2022-08-25T06:54:30.908Z,100013.29
2022-08-25T06:57:00.141Z,100013.41
2022-08-25T06:59:32.288Z,100013.33
2022-08-25T07:02:03.177Z,100011.58
2022-08-25T07:04:32.999Z,100010.36
2022-08-25T07:07:02.174Z,100010.34
2022-08-25T07:09:31.483Z,100010.89
2022-08-25T07:12:01.959Z,100006.20
2022-08-25T07:14:30.676Z,100004.80
2022-08-25T07:16:59.406Z,100006.60
2022-08-25T07:19:28.152Z,100014.00
2022-08-25T07:21:56.641Z,100010.13
2022-08-25T07:24:25.617Z,100007.44
2022-08-25T07:26:54.432Z,100005.63
2022-08-25T07:29:31.901Z,100004.24
2022-08-25T07:32:03.513Z,100009.23
2022-08-25T07:34:51.912Z,100009.90
2022-08-25T07:40:14.927Z,100004.98
2022-08-25T07:42:43.672Z,100005.30
2022-08-25T07:45:13.915Z,99999.91
2022-08-25T07:47:45.784Z,99997.06
2022-08-25T07:50:14.735Z,99999.41
2022-08-25T07:52:43.290Z,99998.98
2022-08-25T07:55:12.442Z,99996.76
2022-08-25T07:57:49.865Z,100000.66
2022-08-25T08:00:26.890Z,99996.91
2022-08-25T08:02:56.046Z,99997.55
2022-08-25T08:05:27.697Z,99996.23
2022-08-25T08:07:55.702Z,100002.86
2022-08-25T08:13:18.012Z,100002.54
2022-08-25T08:15:47.855Z,99998.50
2022-08-25T08:18:16.637Z,99998.74
2022-08-25T08:20:46.462Z,99996.58
2022-08-25T08:23:15.826Z,99992.29
2022-08-25T08:25:44.446Z,99988.59
2022-08-25T08:28:13.672Z,99984.65
2022-08-25T08:30:53.387Z,99982.94
2022-08-25T08:33:25.991Z,99986.20
2022-08-25T08:36:05.284Z,99985.38
2022-08-25T08:38:35.078Z,99991.02
2022-08-25T08:42:07.697Z,99991.20
2022-08-25T08:44:49.850Z,99989.66
2022-08-25T08:47:31.138Z,99989.92
2022-08-25T08:50:02.236Z,99986.42
2022-08-25T08:52:52.517Z,99983.59
2022-08-25T08:55:28.133Z,99986.06
2022-08-25T08:58:00.551Z,99984.45
2022-08-25T09:00:31.271Z,99980.34
2022-08-25T09:03:05.143Z,99976.56
2022-08-25T09:05:46.780Z,99979.25
2022-08-25T09:08:20.516Z,99983.11
2022-08-25T09:11:01.817Z,99981.52
2022-08-25T09:13:45.591Z,99981.40
2022-08-25T09:16:38.446Z,99981.41
2022-08-25T09:19:24.533Z,99980.08
2022-08-25T09:21:57.860Z,99977.88
2022-08-25T09:24:45.238Z,99977.73
2022-08-25T09:27:24.165Z,99978.11
2022-08-25T09:30:05.517Z,99976.31
2022-08-25T09:32:39.102Z,99973.95
2022-08-25T09:35:15.086Z,99969.08
2022-08-25T09:37:54.640Z,99970.46
2022-08-25T09:40:23.958Z,99969.58
2022-08-25T09:42:57.880Z,99970.54
2022-08-25T09:45:40.131Z,99964.20
2022-08-25T09:48:26.909Z,99964.27
2022-08-25T09:51:01.809Z,99963.73
2022-08-25T09:53:33.818Z,99957.57
2022-08-25T09:56:06.910Z,99956.16
2022-08-25T09:58:35.422Z,99952.20
2022-08-25T10:01:14.053Z,99946.60
2022-08-25T10:03:59.593Z,99949.36
2022-08-25T10:06:34.013Z,99945.42
2022-08-25T10:09:07.061Z,99938.94
2022-08-25T10:11:41.617Z,99938.71
2022-08-25T10:14:27.367Z,99934.81
2022-08-25T10:17:14.359Z,99931.38
2022-08-25T10:19:43.404Z,99925.34
2022-08-25T10:22:20.759Z,99921.36
2022-08-25T10:24:49.644Z,99916.36
2022-08-25T10:27:30.893Z,99912.34
2022-08-25T10:30:13.412Z,99909.71
2022-08-25T10:33:02.834Z,99907.92
2022-08-25T10:35:39.462Z,99906.45
2022-08-25T10:38:27.274Z,99906.86
2022-08-25T10:41:09.414Z,99903.64
2022-08-25T10:43:45.516Z,99905.86
2022-08-25T10:46:27.466Z,99904.12
2022-08-25T10:49:13.189Z,99901.10
2022-08-25T10:52:00.488Z,99899.33
2022-08-25T10:54:46.532Z,99898.19
2022-08-25T10:57:22.024Z,99891.70
2022-08-25T11:00:00.569Z,99888.25
2022-08-25T11:03:11.171Z,99883.17
2022-08-25T11:05:46.004Z,99879.39
2022-08-25T11:08:24.984Z,99877.68
2022-08-25T11:10:59.859Z,99874.92
2022-08-25T11:13:37.405Z,99873.00
2022-08-25T11:16:17.621Z,99867.80
2022-08-25T11:18:53.118Z,99865.59
2022-08-25T11:21:26.897Z,99860.45
2022-08-25T11:24:05.139Z,99855.05
2022-08-25T11:26:37.747Z,99854.19
2022-08-25T11:29:16.035Z,99852.89
2022-08-25T11:31:52.833Z,99849.66
2022-08-25T11:34:22.838Z,99850.92
2022-08-25T11:36:57.005Z,99842.69
2022-08-25T11:39:40.214Z,99843.55
2022-08-25T11:42:25.893Z,99832.92
2022-08-25T11:45:08.603Z,99832.98
2022-08-25T11:48:09.543Z,99831.84
2022-08-25T11:50:57.757Z,99826.15
2022-08-25T11:53:28.984Z,99826.27
2022-08-25T11:56:03.730Z,99819.55
2022-08-25T11:58:38.097Z,99817.52
2022-08-25T12:01:11.303Z,99815.50
2022-08-25T12:04:14.836Z,99814.23
2022-08-25T12:07:18.377Z,99815.91
2022-08-25T12:10:24.906Z,99814.71
2022-08-25T12:13:37.422Z,99814.88
2022-08-25T12:16:07.103Z,99808.55
2022-08-25T12:18:45.877Z,99808.02
2022-08-25T12:21:29.976Z,99808.81
2022-08-25T12:24:12.721Z,99807.70
2022-08-25T12:26:51.363Z,99805.02
2022-08-25T12:29:30.132Z,99803.45
2022-08-25T12:32:22.641Z,99802.98
2022-08-25T12:35:21.791Z,99802.24
2022-08-25T12:38:03.981Z,99795.08
2022-08-25T12:40:37.028Z,99797.38
2022-08-25T12:43:09.781Z,99791.97
2022-08-25T12:45:45.419Z,99789.06
2022-08-25T12:49:04.321Z,99784.52
2022-08-25T12:51:53.842Z,99781.83
2022-08-25T12:54:32.422Z,99781.59
2022-08-25T12:57:14.312Z,99786.42
2022-08-25T12:59:49.630Z,99780.77
2022-08-25T13:02:52.001Z,99779.40
2022-08-25T13:05:47.326Z,99774.36
2022-08-25T13:08:46.609Z,99770.85
2022-08-25T13:11:30.736Z,99772.80
2022-08-25T13:14:07.813Z,99768.72
2022-08-25T13:16:39.082Z,99772.20
2022-08-25T13:19:18.416Z,99769.85
2022-08-25T13:21:48.405Z,99765.30
2022-08-25T13:24:22.297Z,99762.71
2022-08-25T13:26:55.203Z,99758.60
2022-08-25T13:29:27.244Z,99755.56
2022-08-25T13:31:59.350Z,99754.28
2022-08-25T13:34:34.833Z,99756.95
2022-08-25T13:37:27.655Z,99756.30
2022-08-25T13:40:10.988Z,99756.11
2022-08-25T13:42:42.515Z,99757.34
2022-08-25T13:45:17.066Z,99753.52
2022-08-25T13:47:47.668Z,99747.05
2022-08-25T13:50:28.778Z,99744.73
2022-08-25T13:52:59.707Z,99736.09
2022-08-25T13:55:38.409Z,99736.40
2022-08-25T13:58:24.809Z,99735.83
2022-08-25T14:01:19.963Z,99733.80
2022-08-25T14:04:17.514Z,99730.69
2022-08-25T14:06:47.594Z,99727.74
2022-08-25T14:09:27.987Z,99723.45
2022-08-25T14:11:58.023Z,99723.78
2022-08-25T14:14:35.377Z,99723.50
2022-08-25T14:17:22.144Z,99723.23
2022-08-25T14:20:00.304Z,99724.18
2022-08-25T14:22:45.912Z,99719.04
2022-08-25T14:25:15.456Z,99715.84
2022-08-25T14:28:10.938Z,99709.84
2022-08-25T14:30:52.273Z,99705.56
2022-08-25T14:33:24.913Z,99702.84
2022-08-25T14:35:57.682Z,99695.85
2022-08-25T14:38:31.192Z,99698.19
2022-08-25T14:41:00.730Z,99699.90
2022-08-25T14:43:31.750Z,99696.19
2022-08-25T14:46:03.236Z,99696.39
2022-08-25T14:48:34.402Z,99695.47
2022-08-25T14:51:04.851Z,99691.82
2022-08-25T14:53:34.637Z,99691.56
2022-08-25T14:56:08.640Z,99692.05
2022-08-25T14:58:50.968Z,99691.03
2022-08-25T15:01:29.206Z,99692.36
2022-08-25T15:04:07.349Z,99690.05
2022-08-25T15:06:38.845Z,99688.42
2022-08-25T15:09:10.780Z,99684.46
2022-08-25T15:11:44.494Z,99684.98
2022-08-25T15:14:15.738Z,99683.34
2022-08-25T15:16:49.616Z,99679.47
2022-08-25T15:19:20.445Z,99676.09
2022-08-25T15:21:50.678Z,99672.88
2022-08-25T15:24:22.440Z,99668.52
2022-08-25T15:26:55.486Z,99668.77
2022-08-25T15:29:26.733Z,99667.92
2022-08-25T15:31:55.664Z,99660.52
2022-08-25T15:34:24.542Z,99659.55
2022-08-25T15:36:53.466Z,99657.68
2022-08-25T15:39:22.372Z,99657.91
2022-08-25T15:41:51.758Z,99663.09
2022-08-25T15:44:21.295Z,99660.25
2022-08-25T15:46:50.449Z,99655.39
2022-08-25T15:49:23.107Z,99656.11
2022-08-25T15:51:53.214Z,99658.80
2022-08-25T15:54:26.843Z,99661.25
2022-08-25T15:56:56.540Z,99658.23
2022-08-25T15:59:26.350Z,99657.35
2022-08-25T16:01:58.699Z,99655.60
2022-08-25T16:04:28.773Z,99652.88
2022-08-25T16:06:58.694Z,99650.33
2022-08-25T16:09:27.220Z,99648.18
2022-08-25T16:11:58.996Z,99647.84
2022-08-25T16:14:31.331Z,99648.17
2022-08-25T16:17:00.024Z,99648.85
2022-08-25T16:19:29.236Z,99645.40
2022-08-25T16:21:58.469Z,99645.02
2022-08-25T16:24:28.463Z,99642.52
2022-08-25T16:27:11.403Z,99638.36
2022-08-25T16:29:42.211Z,99639.23
2022-08-25T16:32:13.317Z,99639.92
2022-08-25T16:34:42.223Z,99636.85
2022-08-25T16:37:11.030Z,99635.40
2022-08-25T16:39:43.518Z,99641.60
2022-08-25T16:42:12.513Z,99644.09
2022-08-25T16:44:42.204Z,99639.99
2022-08-25T16:47:13.975Z,99639.95
2022-08-25T16:49:41.987Z,99642.46
2022-08-25T16:52:30.708Z,99640.77
2022-08-25T16:55:15.911Z,99641.66
2022-08-25T16:57:47.925Z,99643.87
2022-08-25T17:00:17.038Z,99650.75
2022-08-25T17:02:45.826Z,99654.32
2022-08-25T17:05:14.816Z,99652.06
2022-08-25T17:08:03.691Z,99655.02
2022-08-25T17:10:36.208Z,99654.95
2022-08-25T17:13:05.625Z,99652.31
2022-08-25T17:15:34.813Z,99651.42
2022-08-25T17:18:04.665Z,99651.93
2022-08-25T17:20:34.665Z,99652.83
2022-08-25T17:23:12.103Z,99657.16
2022-08-25T17:25:43.316Z,99655.36
2022-08-25T17:28:12.980Z,99651.40
2022-08-25T17:30:42.577Z,99655.97
2022-08-25T17:33:11.507Z,99652.59
2022-08-25T17:35:40.727Z,99650.52
2022-08-25T17:38:10.560Z,99653.27
2022-08-25T17:40:40.431Z,99655.05
2022-08-25T17:43:09.848Z,99656.00
2022-08-25T17:45:39.607Z,99659.42
2022-08-25T17:48:09.074Z,99659.39
2022-08-25T17:50:38.902Z,99661.14
2022-08-25T17:53:09.291Z,99661.40
2022-08-25T17:55:39.783Z,99661.14
2022-08-25T17:58:16.095Z,99667.64
2022-08-25T18:00:46.469Z,99664.85
2022-08-25T18:03:15.236Z,99662.34
2022-08-25T18:05:45.068Z,99662.08
2022-08-25T18:08:15.807Z,99662.96
2022-08-25T18:10:49.973Z,99661.62
2022-08-25T18:13:19.459Z,99664.48
2022-08-25T18:16:09.450Z,99662.71
2022-08-25T18:18:39.316Z,99668.52
2022-08-25T18:21:16.827Z,99675.22
2022-08-25T18:23:58.436Z,99680.02
2022-08-25T18:26:27.698Z,99677.92
2022-08-25T18:29:05.959Z,99676.77
2022-08-25T18:31:37.041Z,99678.66
2022-08-25T18:34:10.347Z,99682.52
2022-08-25T18:36:43.612Z,99680.38
2022-08-25T18:39:34.904Z,99677.40
2022-08-25T18:42:08.066Z,99681.51
2022-08-25T18:44:36.800Z,99683.52
2022-08-25T18:47:07.565Z,99679.19
2022-08-25T18:49:36.850Z,99671.70
2022-08-25T18:52:06.509Z,99670.67
2022-08-25T18:57:39.935Z,99673.93
2022-08-25T19:00:18.868Z,99675.50
2022-08-25T19:03:18.972Z,99678.73
2022-08-25T19:06:16.083Z,99679.30
2022-08-25T19:12:46.593Z,99683.29
2022-08-25T19:16:10.747Z,99686.67
2022-08-25T19:18:54.022Z,99686.94
2022-08-25T19:21:38.014Z,99686.62
2022-08-25T19:24:08.954Z,99687.81
2022-08-25T19:26:47.312Z,99686.89
2022-08-25T19:29:23.215Z,99685.27
2022-08-25T19:32:06.686Z,99686.52
2022-08-25T19:34:42.114Z,99683.78
2022-08-25T19:37:14.659Z,99685.17
2022-08-25T19:39:53.008Z,99688.25
2022-08-25T19:42:34.969Z,99689.02
2022-08-25T19:45:15.425Z,99688.55
2022-08-25T19:47:45.462Z,99690.81
2022-08-25T19:50:16.920Z,99687.48
2022-08-25T19:52:45.125Z,99688.06
2022-08-25T19:55:14.525Z,99686.88
2022-08-25T19:57:43.841Z,99684.72
2022-08-25T20:00:16.922Z,99684.07
2022-08-25T20:02:46.986Z,99681.48
2022-08-25T20:05:23.570Z,99681.44
2022-08-25T20:07:54.099Z,99684.45
2022-08-25T20:10:24.310Z,99682.25
2022-08-25T20:12:55.541Z,99679.80
2022-08-25T20:15:25.467Z,99680.16
2022-08-25T20:17:56.561Z,99681.36
2022-08-25T20:20:32.641Z,99676.98
2022-08-25T20:23:21.837Z,99677.35
2022-08-25T20:25:51.487Z,99682.96
2022-08-25T20:28:20.233Z,99685.17
2022-08-25T20:30:48.997Z,99686.55
2022-08-25T20:33:22.823Z,99685.00
2022-08-25T20:35:53.062Z,99687.09
2022-08-25T20:38:21.785Z,99687.30
2022-08-25T20:40:50.509Z,99688.30
2022-08-25T20:43:20.775Z,99687.18
2022-08-25T20:45:49.772Z,99691.98
2022-08-25T20:48:18.411Z,99689.88
2022-08-25T20:50:57.390Z,99691.77
2022-08-25T20:53:26.848Z,99688.63
2022-08-25T20:55:55.741Z,99687.58
2022-08-25T20:58:24.133Z,99688.40
2022-08-25T21:00:55.424Z,99689.86
2022-08-25T21:03:24.731Z,99686.73
2022-08-25T21:05:54.050Z,99683.30
2022-08-25T21:08:23.752Z,99684.40
2022-08-25T21:10:54.204Z,99686.06
2022-08-25T21:13:22.930Z,99686.45
2022-08-25T21:15:51.582Z,99684.00
2022-08-25T21:18:20.547Z,99686.02
2022-08-25T21:20:49.100Z,99688.52
2022-08-25T21:23:17.680Z,99685.20
2022-08-25T21:25:46.497Z,99686.56
2022-08-25T21:28:15.174Z,99687.27
2022-08-25T21:30:44.797Z,99686.65
2022-08-25T21:33:16.061Z,99682.90
2022-08-25T21:35:44.712Z,99680.58
2022-08-25T21:38:15.902Z,99678.73
2022-08-25T21:40:45.058Z,99674.46
2022-08-25T21:43:13.812Z,99676.77
2022-08-25T21:45:46.851Z,99678.38
2022-08-25T21:48:16.101Z,99678.61
2022-08-25T21:50:44.926Z,99681.45
2022-08-25T21:53:13.717Z,99675.39
2022-08-25T21:55:43.863Z,99674.60
2022-08-25T21:58:12.532Z,99674.37
2022-08-25T22:00:44.252Z,99672.61
2022-08-25T22:04:02.396Z,99663.52
2022-08-25T22:06:31.781Z,99660.58
2022-08-25T22:09:00.890Z,99658.27
2022-08-25T22:11:29.408Z,99658.23
2022-08-25T22:14:06.055Z,99658.67
2022-08-25T22:16:36.710Z,99658.52
2022-08-25T22:19:07.672Z,99658.95
2022-08-25T22:21:41.294Z,99655.80
2022-08-25T22:24:10.517Z,99655.03
2022-08-25T22:26:40.196Z,99655.04
2022-08-25T22:29:09.351Z,99653.70
2022-08-25T22:31:38.675Z,99651.52
2022-08-25T22:34:07.920Z,99647.95
2022-08-25T22:36:38.339Z,99647.76
2022-08-25T22:39:07.779Z,99643.92
2022-08-25T22:41:36.552Z,99645.60
2022-08-25T22:44:10.454Z,99645.20
2022-08-25T22:46:39.034Z,99644.05
2022-08-25T22:49:08.351Z,99642.29
2022-08-25T22:51:37.311Z,99634.35
2022-08-25T22:54:06.398Z,99633.10
2022-08-25T22:56:39.158Z,99634.30
2022-08-25T22:59:10.568Z,99630.83
2022-08-25T23:01:39.650Z,99631.78
2022-08-25T23:04:08.863Z,99627.16
2022-08-25T23:06:40.129Z,99625.88
2022-08-25T23:09:10.232Z,99624.06
2022-08-25T23:11:39.468Z,99627.42
2022-08-25T23:14:10.428Z,99632.65
2022-08-25T23:16:41.912Z,99627.79
2022-08-25T23:19:13.788Z,99621.55
2022-08-25T23:22:00.739Z,99627.71
2022-08-25T23:24:30.752Z,99622.69
2022-08-25T23:27:01.488Z,99615.77
2022-08-25T23:29:31.383Z,99620.02
2022-08-25T23:32:00.154Z,99618.92
2022-08-25T23:34:29.293Z,99617.34
2022-08-25T23:36:58.405Z,99611.50
2022-08-25T23:39:27.256Z,99612.11
2022-08-25T23:41:55.950Z,99612.58
2022-08-25T23:44:25.678Z,99605.75
2022-08-25T23:46:54.902Z,99607.87
2022-08-25T23:49:24.355Z,99608.55
2022-08-25T23:51:55.038Z,99604.89
2022-08-25T23:54:31.446Z,99602.91
2022-08-25T23:57:00.451Z,99606.45
2022-08-25T23:59:30.352Z,99605.90
